sensor_id;sensor_type;location;lat;lon;timestamp;pressure;altitude;pressure_sealevel;temperature;humidity
34566;BME280;20803;42.676;26.348;2022-10-31T00:01:27;98934.41;;;15.25;68.27
34566;BME280;20803;42.676;26.348;2022-10-31T00:03:53;98931.00;;;15.33;68.40
34566;BME280;20803;42.676;26.348;2022-10-31T00:06:20;98941.53;;;15.29;69.10
34566;BME280;20803;42.676;26.348;2022-10-31T00:08:46;98930.56;;;15.19;71.15
34566;BME280;20803;42.676;26.348;2022-10-31T00:11:12;98921.69;;;15.24;70.04
34566;BME280;20803;42.676;26.348;2022-10-31T00:13:38;98920.88;;;15.23;71.01
34566;BME280;20803;42.676;26.348;2022-10-31T00:16:04;98917.72;;;15.21;70.73
34566;BME280;20803;42.676;26.348;2022-10-31T00:18:30;98912.75;;;15.29;70.36
34566;BME280;20803;42.676;26.348;2022-10-31T00:21:02;98921.28;;;15.38;69.60
34566;BME280;20803;42.676;26.348;2022-10-31T00:23:28;98925.13;;;15.44;68.78
34566;BME280;20803;42.676;26.348;2022-10-31T00:25:54;98916.75;;;15.60;67.06
34566;BME280;20803;42.676;26.348;2022-10-31T00:28:19;98925.22;;;15.73;66.07
34566;BME280;20803;42.676;26.348;2022-10-31T00:30:45;98917.59;;;15.73;65.85
34566;BME280;20803;42.676;26.348;2022-10-31T00:33:10;98921.25;;;15.70;66.61
34566;BME280;20803;42.676;26.348;2022-10-31T00:35:35;98918.91;;;15.69;66.55
34566;BME280;20803;42.676;26.348;2022-10-31T00:38:01;98922.91;;;15.68;66.58
34566;BME280;20803;42.676;26.348;2022-10-31T00:40:26;98915.31;;;15.68;66.74
34566;BME280;20803;42.676;26.348;2022-10-31T00:42:52;98915.41;;;15.65;67.48
34566;BME280;20803;42.676;26.348;2022-10-31T00:45:17;98906.81;;;15.72;65.84
34566;BME280;20803;42.676;26.348;2022-10-31T00:47:42;98911.75;;;15.80;65.89
34566;BME280;20803;42.676;26.348;2022-10-31T00:50:08;98923.31;;;15.82;65.78
34566;BME280;20803;42.676;26.348;2022-10-31T00:52:33;98927.34;;;15.81;65.80
34566;BME280;20803;42.676;26.348;2022-10-31T00:54:59;98932.53;;;15.83;65.23
34566;BME280;20803;42.676;26.348;2022-10-31T00:57:24;98936.16;;;15.96;63.91
34566;BME280;20803;42.676;26.348;2022-10-31T00:59:50;98924.69;;;16.19;61.63
34566;BME280;20803;42.676;26.348;2022-10-31T01:02:16;98921.78;;;16.36;62.90
34566;BME280;20803;42.676;26.348;2022-10-31T01:04:41;98927.19;;;16.43;60.43
34566;BME280;20803;42.676;26.348;2022-10-31T01:07:07;98923.41;;;16.62;59.26
34566;BME280;20803;42.676;26.348;2022-10-31T01:09:32;98915.22;;;16.80;57.81
34566;BME280;20803;42.676;26.348;2022-10-31T01:11:57;98923.78;;;16.89;57.80
34566;BME280;20803;42.676;26.348;2022-10-31T01:14:23;98923.97;;;17.08;56.36
34566;BME280;20803;42.676;26.348;2022-10-31T01:16:48;98919.22;;;17.30;55.12
34566;BME280;20803;42.676;26.348;2022-10-31T01:19:14;98924.56;;;17.50;54.50
34566;BME280;20803;42.676;26.348;2022-10-31T01:21:39;98918.16;;;17.49;54.24
34566;BME280;20803;42.676;26.348;2022-10-31T01:24:05;98917.03;;;17.47;54.37
34566;BME280;20803;42.676;26.348;2022-10-31T01:26:32;98913.44;;;17.46;54.21
34566;BME280;20803;42.676;26.348;2022-10-31T01:29:01;98915.00;;;17.47;54.18
34566;BME280;20803;42.676;26.348;2022-10-31T01:31:29;98914.66;;;17.45;54.44
34566;BME280;20803;42.676;26.348;2022-10-31T01:33:55;98916.75;;;17.32;55.36
34566;BME280;20803;42.676;26.348;2022-10-31T01:36:29;98910.56;;;17.24;55.03
34566;BME280;20803;42.676;26.348;2022-10-31T01:38:58;98923.41;;;17.13;57.34
34566;BME280;20803;42.676;26.348;2022-10-31T01:41:30;98915.88;;;17.10;57.22
34566;BME280;20803;42.676;26.348;2022-10-31T01:43:58;98912.63;;;16.98;57.53
34566;BME280;20803;42.676;26.348;2022-10-31T01:46:29;98918.16;;;16.89;57.87
34566;BME280;20803;42.676;26.348;2022-10-31T01:48:57;98911.41;;;16.87;57.71
34566;BME280;20803;42.676;26.348;2022-10-31T01:51:28;98905.00;;;16.86;58.10
34566;BME280;20803;42.676;26.348;2022-10-31T01:53:59;98910.50;;;16.90;57.42
34566;BME280;20803;42.676;26.348;2022-10-31T01:56:26;98914.22;;;16.74;59.08
34566;BME280;20803;42.676;26.348;2022-10-31T01:58:54;98912.78;;;16.70;59.92
34566;BME280;20803;42.676;26.348;2022-10-31T02:01:20;98910.97;;;16.63;59.81
34566;BME280;20803;42.676;26.348;2022-10-31T02:03:46;98906.09;;;16.38;59.66
34566;BME280;20803;42.676;26.348;2022-10-31T02:06:31;98917.88;;;16.33;61.43
34566;BME280;20803;42.676;26.348;2022-10-31T02:09:00;98923.34;;;16.24;61.38
34566;BME280;20803;42.676;26.348;2022-10-31T02:11:28;98920.53;;;16.24;60.91
34566;BME280;20803;42.676;26.348;2022-10-31T02:13:54;98918.72;;;16.17;61.43
34566;BME280;20803;42.676;26.348;2022-10-31T02:16:20;98919.28;;;16.12;62.87
34566;BME280;20803;42.676;26.348;2022-10-31T02:18:45;98923.97;;;16.03;62.62
34566;BME280;20803;42.676;26.348;2022-10-31T02:21:19;98919.91;;;15.91;63.18
34566;BME280;20803;42.676;26.348;2022-10-31T02:32:27;98930.41;;;16.16;60.46
34566;BME280;20803;42.676;26.348;2022-10-31T02:40:18;98935.25;;;16.28;62.00
34566;BME280;20803;42.676;26.348;2022-10-31T02:43:06;98932.09;;;16.26;61.15
34566;BME280;20803;42.676;26.348;2022-10-31T02:45:46;98937.94;;;16.32;60.42
34566;BME280;20803;42.676;26.348;2022-10-31T02:48:18;98940.19;;;16.37;60.56
34566;BME280;20803;42.676;26.348;2022-10-31T02:50:52;98930.78;;;16.43;59.72
34566;BME280;20803;42.676;26.348;2022-10-31T02:53:20;98940.53;;;16.39;63.39
34566;BME280;20803;42.676;26.348;2022-10-31T02:56:04;98958.16;;;16.39;61.01
34566;BME280;20803;42.676;26.348;2022-10-31T02:58:33;98946.84;;;16.55;58.42
34566;BME280;20803;42.676;26.348;2022-10-31T03:12:04;98954.38;;;17.22;56.98
34566;BME280;20803;42.676;26.348;2022-10-31T03:17:24;98960.75;;;17.60;54.64
34566;BME280;20803;42.676;26.348;2022-10-31T03:19:53;98962.88;;;17.56;54.79
34566;BME280;20803;42.676;26.348;2022-10-31T03:22:25;98960.38;;;17.58;54.79
34566;BME280;20803;42.676;26.348;2022-10-31T03:24:53;98965.56;;;17.60;54.71
34566;BME280;20803;42.676;26.348;2022-10-31T03:27:27;98970.84;;;17.58;54.31
34566;BME280;20803;42.676;26.348;2022-10-31T03:29:56;98975.78;;;17.54;54.54
34566;BME280;20803;42.676;26.348;2022-10-31T03:32:30;98975.94;;;17.50;54.70
34566;BME280;20803;42.676;26.348;2022-10-31T03:35:00;98968.72;;;17.49;54.67
34566;BME280;20803;42.676;26.348;2022-10-31T03:37:27;98966.16;;;17.42;54.91
34566;BME280;20803;42.676;26.348;2022-10-31T03:39:56;98964.13;;;17.42;54.69
34566;BME280;20803;42.676;26.348;2022-10-31T03:42:29;98971.53;;;17.49;54.91
34566;BME280;20803;42.676;26.348;2022-10-31T03:45:00;98968.72;;;17.49;54.92
34566;BME280;20803;42.676;26.348;2022-10-31T03:47:28;98974.25;;;17.40;55.08
34566;BME280;20803;42.676;26.348;2022-10-31T03:49:54;98962.69;;;17.38;55.45
34566;BME280;20803;42.676;26.348;2022-10-31T03:52:25;98967.75;;;17.30;55.47
34566;BME280;20803;42.676;26.348;2022-10-31T03:54:55;98961.56;;;17.23;56.25
34566;BME280;20803;42.676;26.348;2022-10-31T04:00:12;98979.00;;;17.18;56.66
34566;BME280;20803;42.676;26.348;2022-10-31T04:02:42;98985.19;;;17.25;56.36
34566;BME280;20803;42.676;26.348;2022-10-31T04:05:09;98993.25;;;17.36;55.61
34566;BME280;20803;42.676;26.348;2022-10-31T04:07:40;98993.91;;;17.40;55.27
34566;BME280;20803;42.676;26.348;2022-10-31T04:10:10;98994.28;;;17.29;55.46
34566;BME280;20803;42.676;26.348;2022-10-31T04:12:38;98995.94;;;17.27;55.66
34566;BME280;20803;42.676;26.348;2022-10-31T04:15:06;98994.94;;;17.21;55.67
34566;BME280;20803;42.676;26.348;2022-10-31T04:17:35;99014.38;;;17.15;56.08
34566;BME280;20803;42.676;26.348;2022-10-31T04:20:03;99022.34;;;17.04;56.82
34566;BME280;20803;42.676;26.348;2022-10-31T04:22:28;99022.56;;;16.84;58.06
34566;BME280;20803;42.676;26.348;2022-10-31T04:24:54;99020.88;;;16.74;59.17
34566;BME280;20803;42.676;26.348;2022-10-31T04:27:19;99023.44;;;16.69;59.71
34566;BME280;20803;42.676;26.348;2022-10-31T04:29:45;99034.88;;;16.61;60.44
34566;BME280;20803;42.676;26.348;2022-10-31T04:32:10;99035.31;;;16.60;61.01
34566;BME280;20803;42.676;26.348;2022-10-31T04:34:36;99024.22;;;16.69;60.45
34566;BME280;20803;42.676;26.348;2022-10-31T04:37:01;99032.88;;;16.75;60.20
34566;BME280;20803;42.676;26.348;2022-10-31T04:39:27;99027.81;;;16.70;61.03
34566;BME280;20803;42.676;26.348;2022-10-31T04:41:52;99039.94;;;16.67;61.16
34566;BME280;20803;42.676;26.348;2022-10-31T04:44:17;99041.94;;;16.66;61.20
34566;BME280;20803;42.676;26.348;2022-10-31T04:46:43;99043.53;;;16.67;61.17
34566;BME280;20803;42.676;26.348;2022-10-31T04:49:08;99047.56;;;16.66;61.17
34566;BME280;20803;42.676;26.348;2022-10-31T04:51:34;99042.75;;;16.67;60.83
34566;BME280;20803;42.676;26.348;2022-10-31T04:53:59;99044.75;;;16.66;61.16
34566;BME280;20803;42.676;26.348;2022-10-31T04:56:24;99043.88;;;16.69;60.59
34566;BME280;20803;42.676;26.348;2022-10-31T04:58:50;99047.72;;;16.59;61.52
34566;BME280;20803;42.676;26.348;2022-10-31T05:01:15;99048.03;;;16.65;61.36
34566;BME280;20803;42.676;26.348;2022-10-31T05:03:41;99048.25;;;16.70;61.09
34566;BME280;20803;42.676;26.348;2022-10-31T05:06:07;99060.94;;;16.75;60.92
34566;BME280;20803;42.676;26.348;2022-10-31T05:08:32;99064.78;;;16.81;61.06
34566;BME280;20803;42.676;26.348;2022-10-31T05:11:02;99062.66;;;16.85;60.59
34566;BME280;20803;42.676;26.348;2022-10-31T05:13:28;99068.72;;;16.96;59.96
34566;BME280;20803;42.676;26.348;2022-10-31T05:15:53;99080.09;;;17.05;59.46
34566;BME280;20803;42.676;26.348;2022-10-31T05:18:18;99072.09;;;17.03;58.97
34566;BME280;20803;42.676;26.348;2022-10-31T05:20:44;99068.63;;;16.99;59.49
34566;BME280;20803;42.676;26.348;2022-10-31T05:23:09;99077.84;;;17.00;60.72
34566;BME280;20803;42.676;26.348;2022-10-31T05:25:35;99072.56;;;17.15;60.05
34566;BME280;20803;42.676;26.348;2022-10-31T05:28:00;99076.50;;;17.17;58.65
34566;BME280;20803;42.676;26.348;2022-10-31T05:30:29;99079.31;;;17.17;57.86
34566;BME280;20803;42.676;26.348;2022-10-31T05:32:55;99095.72;;;17.19;58.38
34566;BME280;20803;42.676;26.348;2022-10-31T05:35:24;99097.31;;;17.20;58.42
34566;BME280;20803;42.676;26.348;2022-10-31T05:37:50;99095.72;;;17.19;58.24
34566;BME280;20803;42.676;26.348;2022-10-31T05:40:17;99091.34;;;17.18;58.47
34566;BME280;20803;42.676;26.348;2022-10-31T05:42:43;99094.50;;;17.20;58.42
34566;BME280;20803;42.676;26.348;2022-10-31T05:45:11;99100.56;;;17.18;58.35
34566;BME280;20803;42.676;26.348;2022-10-31T05:47:37;99084.94;;;17.17;58.87
34566;BME280;20803;42.676;26.348;2022-10-31T05:50:03;99105.03;;;17.16;58.89
34566;BME280;20803;42.676;26.348;2022-10-31T05:52:28;99117.03;;;17.03;59.22
34566;BME280;20803;42.676;26.348;2022-10-31T05:54:54;99114.31;;;16.87;60.23
34566;BME280;20803;42.676;26.348;2022-10-31T05:57:19;99116.97;;;16.78;61.23
34566;BME280;20803;42.676;26.348;2022-10-31T05:59:44;99117.09;;;16.75;61.57
34566;BME280;20803;42.676;26.348;2022-10-31T06:02:10;99130.13;;;16.52;62.95
34566;BME280;20803;42.676;26.348;2022-10-31T06:04:35;99121.69;;;16.52;63.02
34566;BME280;20803;42.676;26.348;2022-10-31T06:07:01;99126.69;;;16.61;62.58
34566;BME280;20803;42.676;26.348;2022-10-31T06:09:26;99130.53;;;16.67;62.36
34566;BME280;20803;42.676;26.348;2022-10-31T06:11:52;99140.31;;;16.75;61.94
34566;BME280;20803;42.676;26.348;2022-10-31T06:14:17;99140.44;;;16.84;61.14
34566;BME280;20803;42.676;26.348;2022-10-31T06:16:43;99152.88;;;16.99;62.34
34566;BME280;20803;42.676;26.348;2022-10-31T06:19:08;99153.34;;;17.11;60.21
34566;BME280;20803;42.676;26.348;2022-10-31T06:21:34;99149.53;;;17.17;59.65
34566;BME280;20803;42.676;26.348;2022-10-31T06:23:59;99160.22;;;17.22;60.22
34566;BME280;20803;42.676;26.348;2022-10-31T06:26:25;99162.69;;;17.33;58.74
34566;BME280;20803;42.676;26.348;2022-10-31T06:28:50;99149.81;;;17.48;59.13
34566;BME280;20803;42.676;26.348;2022-10-31T06:31:15;99159.25;;;17.41;59.13
34566;BME280;20803;42.676;26.348;2022-10-31T06:33:41;99159.81;;;17.36;59.17
34566;BME280;20803;42.676;26.348;2022-10-31T06:36:08;99158.44;;;17.41;57.97
34566;BME280;20803;42.676;26.348;2022-10-31T06:38:34;99150.16;;;17.63;59.55
34566;BME280;20803;42.676;26.348;2022-10-31T06:41:03;99153.25;;;18.28;55.49
34566;BME280;20803;42.676;26.348;2022-10-31T06:43:29;99148.34;;;18.88;53.65
34566;BME280;20803;42.676;26.348;2022-10-31T06:45:55;99144.63;;;19.44;52.41
34566;BME280;20803;42.676;26.348;2022-10-31T06:48:21;99147.81;;;19.95;50.88
34566;BME280;20803;42.676;26.348;2022-10-31T06:50:46;99142.63;;;20.43;49.66
34566;BME280;20803;42.676;26.348;2022-10-31T06:53:12;99148.59;;;20.90;50.03
34566;BME280;20803;42.676;26.348;2022-10-31T06:55:39;99139.47;;;21.14;47.57
34566;BME280;20803;42.676;26.348;2022-10-31T06:58:05;99151.34;;;21.45;45.91
34566;BME280;20803;42.676;26.348;2022-10-31T07:00:31;99145.13;;;21.74;45.17
34566;BME280;20803;42.676;26.348;2022-10-31T07:02:59;99138.28;;;21.90;44.88
34566;BME280;20803;42.676;26.348;2022-10-31T07:05:25;99133.06;;;22.06;44.50
34566;BME280;20803;42.676;26.348;2022-10-31T07:07:56;99131.16;;;22.27;43.92
34566;BME280;20803;42.676;26.348;2022-10-31T07:10:22;99134.00;;;22.51;43.52
34566;BME280;20803;42.676;26.348;2022-10-31T07:12:48;99132.38;;;22.59;43.53
34566;BME280;20803;42.676;26.348;2022-10-31T07:15:18;99137.34;;;22.88;42.81
34566;BME280;20803;42.676;26.348;2022-10-31T07:17:44;99138.53;;;22.96;42.63
34566;BME280;20803;42.676;26.348;2022-10-31T07:20:09;99141.75;;;22.65;42.44
34566;BME280;20803;42.676;26.348;2022-10-31T07:22:35;99139.75;;;22.42;42.98
34566;BME280;20803;42.676;26.348;2022-10-31T07:25:01;99125.34;;;22.31;44.71
34566;BME280;20803;42.676;26.348;2022-10-31T07:27:27;99152.25;;;22.02;43.91
34566;BME280;20803;42.676;26.348;2022-10-31T07:29:52;99135.69;;;22.10;43.18
34566;BME280;20803;42.676;26.348;2022-10-31T07:32:18;99144.75;;;22.23;43.33
34566;BME280;20803;42.676;26.348;2022-10-31T07:34:43;99151.38;;;22.44;42.74
34566;BME280;20803;42.676;26.348;2022-10-31T07:37:09;99149.38;;;22.59;42.02
34566;BME280;20803;42.676;26.348;2022-10-31T07:39:34;99140.31;;;22.70;42.12
34566;BME280;20803;42.676;26.348;2022-10-31T07:41:59;99146.88;;;22.76;41.95
34566;BME280;20803;42.676;26.348;2022-10-31T07:44:25;99142.34;;;23.08;41.65
34566;BME280;20803;42.676;26.348;2022-10-31T07:46:51;99142.56;;;23.19;42.11
34566;BME280;20803;42.676;26.348;2022-10-31T07:49:16;99135.94;;;23.66;40.95
34566;BME280;20803;42.676;26.348;2022-10-31T07:51:41;99139.91;;;23.74;40.15
34566;BME280;20803;42.676;26.348;2022-10-31T07:54:07;99137.47;;;23.67;41.63
34566;BME280;20803;42.676;26.348;2022-10-31T07:56:32;99131.22;;;23.63;41.60
34566;BME280;20803;42.676;26.348;2022-10-31T07:58:58;99133.09;;;23.51;40.91
34566;BME280;20803;42.676;26.348;2022-10-31T08:01:23;99134.16;;;24.03;40.27
34566;BME280;20803;42.676;26.348;2022-10-31T08:03:49;99140.69;;;24.24;39.87
34566;BME280;20803;42.676;26.348;2022-10-31T08:06:14;99138.16;;;24.26;39.99
34566;BME280;20803;42.676;26.348;2022-10-31T08:08:41;99141.00;;;24.26;39.44
34566;BME280;20803;42.676;26.348;2022-10-31T08:11:07;99138.97;;;23.97;40.52
34566;BME280;20803;42.676;26.348;2022-10-31T08:13:32;99139.63;;;23.42;40.85
34566;BME280;20803;42.676;26.348;2022-10-31T08:15:58;99151.44;;;23.85;40.83
34566;BME280;20803;42.676;26.348;2022-10-31T08:18:31;99146.94;;;24.28;39.76
34566;BME280;20803;42.676;26.348;2022-10-31T08:20:57;99145.97;;;24.16;39.58
34566;BME280;20803;42.676;26.348;2022-10-31T08:23:28;99145.41;;;24.47;39.36
34566;BME280;20803;42.676;26.348;2022-10-31T08:25:54;99144.97;;;24.54;39.13
34566;BME280;20803;42.676;26.348;2022-10-31T08:28:19;99152.44;;;24.32;38.97
34566;BME280;20803;42.676;26.348;2022-10-31T08:30:45;99149.16;;;24.18;39.03
34566;BME280;20803;42.676;26.348;2022-10-31T08:33:15;99153.78;;;24.01;39.88
34566;BME280;20803;42.676;26.348;2022-10-31T08:35:42;99155.34;;;24.37;38.85
34566;BME280;20803;42.676;26.348;2022-10-31T08:38:10;99146.47;;;24.50;39.54
34566;BME280;20803;42.676;26.348;2022-10-31T08:40:36;99148.81;;;24.51;38.86
34566;BME280;20803;42.676;26.348;2022-10-31T08:45:30;99157.31;;;24.72;38.38
34566;BME280;20803;42.676;26.348;2022-10-31T08:47:59;99153.44;;;24.89;37.95
34566;BME280;20803;42.676;26.348;2022-10-31T08:50:24;99159.97;;;24.95;37.59
34566;BME280;20803;42.676;26.348;2022-10-31T08:52:50;99152.16;;;24.70;37.99
34566;BME280;20803;42.676;26.348;2022-10-31T08:55:17;99156.69;;;24.62;37.91
34566;BME280;20803;42.676;26.348;2022-10-31T08:57:43;99169.25;;;24.35;38.22
34566;BME280;20803;42.676;26.348;2022-10-31T09:00:09;99166.78;;;24.08;39.03
34566;BME280;20803;42.676;26.348;2022-10-31T09:02:35;99164.84;;;24.34;38.36
34566;BME280;20803;42.676;26.348;2022-10-31T09:05:02;99152.91;;;24.30;39.26
34566;BME280;20803;42.676;26.348;2022-10-31T09:07:28;99158.31;;;24.48;38.25
34566;BME280;20803;42.676;26.348;2022-10-31T09:09:53;99159.44;;;24.77;37.94
34566;BME280;20803;42.676;26.348;2022-10-31T09:12:21;99151.94;;;24.74;37.84
34566;BME280;20803;42.676;26.348;2022-10-31T09:14:48;99163.78;;;24.52;38.22
34566;BME280;20803;42.676;26.348;2022-10-31T09:17:15;99162.44;;;24.47;38.69
34566;BME280;20803;42.676;26.348;2022-10-31T09:19:40;99161.75;;;24.32;38.66
34566;BME280;20803;42.676;26.348;2022-10-31T09:22:06;99154.34;;;24.40;38.44
34566;BME280;20803;42.676;26.348;2022-10-31T09:24:31;99154.41;;;24.46;38.08
34566;BME280;20803;42.676;26.348;2022-10-31T09:26:58;99147.66;;;24.23;38.73
34566;BME280;20803;42.676;26.348;2022-10-31T09:29:23;99152.28;;;24.06;38.93
34566;BME280;20803;42.676;26.348;2022-10-31T09:31:48;99154.47;;;23.96;39.11
34566;BME280;20803;42.676;26.348;2022-10-31T09:34:14;99149.44;;;24.06;39.17
34566;BME280;20803;42.676;26.348;2022-10-31T09:36:39;99147.25;;;24.30;38.68
34566;BME280;20803;42.676;26.348;2022-10-31T09:39:05;99147.88;;;24.40;38.16
34566;BME280;20803;42.676;26.348;2022-10-31T09:47:05;99147.88;;;24.80;37.81
34566;BME280;20803;42.676;26.348;2022-10-31T09:52:31;99145.47;;;24.73;39.02
34566;BME280;20803;42.676;26.348;2022-10-31T09:57:35;99138.72;;;24.50;37.84
34566;BME280;20803;42.676;26.348;2022-10-31T10:00:06;99138.59;;;24.39;38.04
34566;BME280;20803;42.676;26.348;2022-10-31T10:05:13;99138.06;;;24.20;38.48
34566;BME280;20803;42.676;26.348;2022-10-31T10:08:00;99140.31;;;24.51;38.13
34566;BME280;20803;42.676;26.348;2022-10-31T10:10:41;99129.84;;;24.63;37.58
34566;BME280;20803;42.676;26.348;2022-10-31T10:27:17;99119.34;;;24.95;36.95
34566;BME280;20803;42.676;26.348;2022-10-31T10:32:31;99124.00;;;24.92;37.11
34566;BME280;20803;42.676;26.348;2022-10-31T10:35:29;99113.91;;;24.71;36.73
34566;BME280;20803;42.676;26.348;2022-10-31T10:38:22;99117.25;;;24.29;37.79
34566;BME280;20803;42.676;26.348;2022-10-31T10:40:49;99117.78;;;24.13;38.28
34566;BME280;20803;42.676;26.348;2022-10-31T10:43:21;99119.97;;;24.03;38.42
34566;BME280;20803;42.676;26.348;2022-10-31T10:45:57;99110.31;;;23.95;38.23
34566;BME280;20803;42.676;26.348;2022-10-31T10:48:50;99110.38;;;24.56;38.30
34566;BME280;20803;42.676;26.348;2022-10-31T10:51:24;99107.41;;;24.45;37.35
34566;BME280;20803;42.676;26.348;2022-10-31T10:59:19;99109.94;;;24.63;37.00
34566;BME280;20803;42.676;26.348;2022-10-31T11:01:48;99108.56;;;24.18;37.11
34566;BME280;20803;42.676;26.348;2022-10-31T11:04:35;99112.22;;;24.04;37.46
34566;BME280;20803;42.676;26.348;2022-10-31T11:07:10;99109.19;;;24.07;37.61
34566;BME280;20803;42.676;26.348;2022-10-31T11:09:36;99105.19;;;23.99;38.08
34566;BME280;20803;42.676;26.348;2022-10-31T11:12:19;99092.97;;;24.28;37.33
34566;BME280;20803;42.676;26.348;2022-10-31T11:14:46;99093.41;;;24.41;37.27
34566;BME280;20803;42.676;26.348;2022-10-31T11:17:36;99098.41;;;24.72;37.27
34566;BME280;20803;42.676;26.348;2022-10-31T11:22:37;99098.28;;;25.07;36.34
34566;BME280;20803;42.676;26.348;2022-10-31T11:25:22;99102.38;;;25.00;36.10
34566;BME280;20803;42.676;26.348;2022-10-31T11:28:10;99089.59;;;24.90;36.64
34566;BME280;20803;42.676;26.348;2022-10-31T11:33:36;99087.44;;;24.39;37.61
34566;BME280;20803;42.676;26.348;2022-10-31T11:36:13;99083.31;;;24.86;37.32
34566;BME280;20803;42.676;26.348;2022-10-31T11:38:41;99080.25;;;24.23;37.68
34566;BME280;20803;42.676;26.348;2022-10-31T11:43:33;99079.59;;;24.54;37.03
34566;BME280;20803;42.676;26.348;2022-10-31T11:45:58;99081.09;;;24.70;37.30
34566;BME280;20803;42.676;26.348;2022-10-31T11:48:24;99075.28;;;24.85;37.04
34566;BME280;20803;42.676;26.348;2022-10-31T11:50:54;99071.69;;;25.10;37.48
34566;BME280;20803;42.676;26.348;2022-10-31T11:53:32;99076.84;;;24.86;36.75
34566;BME280;20803;42.676;26.348;2022-10-31T11:56:24;99067.03;;;24.61;36.91
34566;BME280;20803;42.676;26.348;2022-10-31T11:58:59;99070.59;;;24.56;36.87
34566;BME280;20803;42.676;26.348;2022-10-31T12:01:27;99069.19;;;24.25;37.23
34566;BME280;20803;42.676;26.348;2022-10-31T12:04:06;99066.91;;;24.30;37.04
34566;BME280;20803;42.676;26.348;2022-10-31T12:06:39;99071.34;;;24.16;38.14
34566;BME280;20803;42.676;26.348;2022-10-31T12:09:27;99078.94;;;23.84;37.80
34566;BME280;20803;42.676;26.348;2022-10-31T12:17:22;99074.63;;;24.09;38.43
34566;BME280;20803;42.676;26.348;2022-10-31T12:25:58;99072.06;;;24.11;37.74
34566;BME280;20803;42.676;26.348;2022-10-31T12:45:57;99064.97;;;24.01;38.03
34566;BME280;20803;42.676;26.348;2022-10-31T12:51:00;99067.47;;;24.34;37.49
34566;BME280;20803;42.676;26.348;2022-10-31T12:59:20;99073.31;;;24.45;37.24
34566;BME280;20803;42.676;26.348;2022-10-31T13:04:30;99074.81;;;24.20;37.53
34566;BME280;20803;42.676;26.348;2022-10-31T13:07:03;99073.47;;;24.01;37.72
34566;BME280;20803;42.676;26.348;2022-10-31T13:09:37;99079.75;;;23.55;38.16
34566;BME280;20803;42.676;26.348;2022-10-31T13:12:08;99076.84;;;23.35;38.36
34566;BME280;20803;42.676;26.348;2022-10-31T13:14:45;99083.97;;;23.30;38.80
34566;BME280;20803;42.676;26.348;2022-10-31T13:17:27;99079.59;;;23.15;38.87
34566;BME280;20803;42.676;26.348;2022-10-31T13:20:13;99084.69;;;23.11;39.30
34566;BME280;20803;42.676;26.348;2022-10-31T13:22:44;99081.56;;;23.23;39.25
34566;BME280;20803;42.676;26.348;2022-10-31T13:25:25;99083.69;;;23.28;39.34
34566;BME280;20803;42.676;26.348;2022-10-31T13:27:59;99076.25;;;23.31;38.92
34566;BME280;20803;42.676;26.348;2022-10-31T13:30:28;99090.25;;;23.34;39.14
34566;BME280;20803;42.676;26.348;2022-10-31T13:40:55;99084.66;;;23.40;40.19
34566;BME280;20803;42.676;26.348;2022-10-31T13:46:36;99088.41;;;23.17;39.99
34566;BME280;20803;42.676;26.348;2022-10-31T13:49:03;99085.75;;;22.98;40.45
34566;BME280;20803;42.676;26.348;2022-10-31T13:51:33;99090.63;;;22.83;40.82
34566;BME280;20803;42.676;26.348;2022-10-31T13:54:06;99092.97;;;22.85;40.86
34566;BME280;20803;42.676;26.348;2022-10-31T13:56:48;99095.34;;;22.86;40.94
34566;BME280;20803;42.676;26.348;2022-10-31T13:59:34;99093.59;;;23.03;40.76
34566;BME280;20803;42.676;26.348;2022-10-31T14:02:14;99096.09;;;22.72;41.05
34566;BME280;20803;42.676;26.348;2022-10-31T14:04:56;99107.97;;;22.61;41.32
34566;BME280;20803;42.676;26.348;2022-10-31T14:07:23;99098.56;;;22.55;41.62
34566;BME280;20803;42.676;26.348;2022-10-31T14:13:31;99105.94;;;22.38;41.71
34566;BME280;20803;42.676;26.348;2022-10-31T14:16:03;99104.00;;;22.44;41.58
34566;BME280;20803;42.676;26.348;2022-10-31T14:18:35;99113.16;;;22.39;42.09
34566;BME280;20803;42.676;26.348;2022-10-31T14:21:16;99106.84;;;22.44;41.62
34566;BME280;20803;42.676;26.348;2022-10-31T14:23:52;99108.63;;;22.33;41.60
34566;BME280;20803;42.676;26.348;2022-10-31T14:28:53;99126.72;;;22.35;42.20
34566;BME280;20803;42.676;26.348;2022-10-31T14:31:42;99116.97;;;22.36;41.98
34566;BME280;20803;42.676;26.348;2022-10-31T14:34:30;99117.88;;;22.18;42.43
34566;BME280;20803;42.676;26.348;2022-10-31T14:51:16;99124.50;;;21.82;43.26
34566;BME280;20803;42.676;26.348;2022-10-31T14:53:51;99136.63;;;21.74;43.52
34566;BME280;20803;42.676;26.348;2022-10-31T14:56:26;99134.16;;;21.67;43.41
34566;BME280;20803;42.676;26.348;2022-10-31T14:58:53;99134.84;;;21.53;44.05
34566;BME280;20803;42.676;26.348;2022-10-31T15:03:49;99143.84;;;21.33;44.70
34566;BME280;20803;42.676;26.348;2022-10-31T15:06:18;99143.84;;;21.24;44.53
34566;BME280;20803;42.676;26.348;2022-10-31T15:08:48;99140.72;;;21.31;44.57
34566;BME280;20803;42.676;26.348;2022-10-31T15:11:26;99145.28;;;21.19;44.91
34566;BME280;20803;42.676;26.348;2022-10-31T15:13:53;99152.66;;;21.08;45.15
34566;BME280;20803;42.676;26.348;2022-10-31T15:16:22;99148.13;;;21.01;45.39
34566;BME280;20803;42.676;26.348;2022-10-31T15:18:52;99148.28;;;20.97;45.72
34566;BME280;20803;42.676;26.348;2022-10-31T15:21:20;99152.69;;;20.89;45.61
34566;BME280;20803;42.676;26.348;2022-10-31T15:23:47;99147.66;;;20.93;45.43
34566;BME280;20803;42.676;26.348;2022-10-31T15:26:20;99159.25;;;20.86;45.75
34566;BME280;20803;42.676;26.348;2022-10-31T15:28:58;99156.13;;;20.75;45.98
34566;BME280;20803;42.676;26.348;2022-10-31T15:31:24;99164.78;;;20.72;46.00